sensor_id;sensor_type;location;lat;lon;timestamp;pressure;altitude;pressure_sealevel;temperature;humidity
61292;BME280;47165;42.664;23.368;2023-04-19T00:02:14;94620.84;;;12.66;60.97
61292;BME280;47165;42.664;23.368;2023-04-19T00:04:40;94618.22;;;12.66;61.03
61292;BME280;47165;42.664;23.368;2023-04-19T00:07:06;94617.09;;;12.58;61.48
61292;BME280;47165;42.664;23.368;2023-04-19T00:09:31;94601.91;;;12.50;61.41
61292;BME280;47165;42.664;23.368;2023-04-19T00:11:57;94607.81;;;12.41;62.23
61292;BME280;47165;42.664;23.368;2023-04-19T00:14:22;94608.22;;;12.47;62.49
61292;BME280;47165;42.664;23.368;2023-04-19T00:16:48;94609.56;;;12.53;62.56
61292;BME280;47165;42.664;23.368;2023-04-19T00:19:13;94612.91;;;12.55;61.92
61292;BME280;47165;42.664;23.368;2023-04-19T00:21:38;94601.47;;;12.56;62.14
61292;BME280;47165;42.664;23.368;2023-04-19T00:24:04;94609.97;;;12.60;61.53
61292;BME280;47165;42.664;23.368;2023-04-19T00:26:30;94602.59;;;12.65;61.36
61292;BME280;47165;42.664;23.368;2023-04-19T00:28:55;94598.53;;;12.61;61.79
61292;BME280;47165;42.664;23.368;2023-04-19T00:31:20;94601.28;;;12.59;61.47
61292;BME280;47165;42.664;23.368;2023-04-19T00:33:46;94593.13;;;12.51;61.20
61292;BME280;47165;42.664;23.368;2023-04-19T00:36:11;94599.53;;;12.47;61.00
61292;BME280;47165;42.664;23.368;2023-04-19T00:38:36;94596.25;;;12.56;60.79
61292;BME280;47165;42.664;23.368;2023-04-19T00:41:02;94603.28;;;12.56;60.83
61292;BME280;47165;42.664;23.368;2023-04-19T00:43:27;94599.09;;;12.53;60.80
61292;BME280;47165;42.664;23.368;2023-04-19T00:45:53;94590.28;;;12.54;60.66
61292;BME280;47165;42.664;23.368;2023-04-19T00:48:18;94599.31;;;12.50;60.60
61292;BME280;47165;42.664;23.368;2023-04-19T00:50:44;94588.50;;;12.55;60.80
61292;BME280;47165;42.664;23.368;2023-04-19T00:53:09;94593.22;;;12.50;60.91
61292;BME280;47165;42.664;23.368;2023-04-19T00:55:37;94592.16;;;12.52;60.51
61292;BME280;47165;42.664;23.368;2023-04-19T00:58:05;94573.34;;;12.47;61.16
61292;BME280;47165;42.664;23.368;2023-04-19T01:00:31;94583.38;;;12.53;60.49
61292;BME280;47165;42.664;23.368;2023-04-19T01:02:56;94586.72;;;12.55;60.22
61292;BME280;47165;42.664;23.368;2023-04-19T01:05:22;94591.72;;;12.58;60.21
61292;BME280;47165;42.664;23.368;2023-04-19T01:07:47;94569.66;;;12.50;60.45
61292;BME280;47165;42.664;23.368;2023-04-19T01:10:13;94583.88;;;12.58;60.41
61292;BME280;47165;42.664;23.368;2023-04-19T01:12:39;94578.44;;;12.61;60.64
61292;BME280;47165;42.664;23.368;2023-04-19T01:15:05;94574.13;;;12.60;60.14
61292;BME280;47165;42.664;23.368;2023-04-19T01:17:31;94578.53;;;12.60;60.38
61292;BME280;47165;42.664;23.368;2023-04-19T01:20:04;94584.13;;;12.55;60.32
61292;BME280;47165;42.664;23.368;2023-04-19T01:22:33;94583.19;;;12.43;60.86
61292;BME280;47165;42.664;23.368;2023-04-19T01:24:59;94579.59;;;12.20;61.73
61292;BME280;47165;42.664;23.368;2023-04-19T01:27:25;94579.50;;;12.09;62.30
61292;BME280;47165;42.664;23.368;2023-04-19T01:29:50;94575.28;;;12.19;62.54
61292;BME280;47165;42.664;23.368;2023-04-19T01:32:16;94565.38;;;11.99;62.58
61292;BME280;47165;42.664;23.368;2023-04-19T01:34:42;94580.13;;;11.61;64.06
61292;BME280;47165;42.664;23.368;2023-04-19T01:37:07;94579.59;;;11.69;64.13
61292;BME280;47165;42.664;23.368;2023-04-19T01:39:33;94574.03;;;11.86;63.49
61292;BME280;47165;42.664;23.368;2023-04-19T01:41:58;94560.56;;;11.93;63.27
61292;BME280;47165;42.664;23.368;2023-04-19T01:44:24;94580.34;;;11.97;63.08
61292;BME280;47165;42.664;23.368;2023-04-19T01:50:11;94572.38;;;11.47;64.86
61292;BME280;47165;42.664;23.368;2023-04-19T01:52:36;94577.59;;;11.73;64.04
61292;BME280;47165;42.664;23.368;2023-04-19T01:55:01;94564.72;;;11.82;63.74
61292;BME280;47165;42.664;23.368;2023-04-19T01:57:27;94570.50;;;11.87;63.88
61292;BME280;47165;42.664;23.368;2023-04-19T01:59:53;94563.78;;;11.71;64.27
61292;BME280;47165;42.664;23.368;2023-04-19T02:02:18;94564.22;;;11.77;64.16
61292;BME280;47165;42.664;23.368;2023-04-19T02:04:44;94556.91;;;11.70;64.46
61292;BME280;47165;42.664;23.368;2023-04-19T02:07:09;94557.53;;;11.73;64.62
61292;BME280;47165;42.664;23.368;2023-04-19T02:09:36;94563.16;;;11.80;64.55
61292;BME280;47165;42.664;23.368;2023-04-19T02:12:03;94563.56;;;11.86;64.58
61292;BME280;47165;42.664;23.368;2023-04-19T02:14:29;94560.44;;;11.68;64.95
61292;BME280;47165;42.664;23.368;2023-04-19T02:16:54;94567.56;;;11.66;64.98
61292;BME280;47165;42.664;23.368;2023-04-19T02:19:20;94564.53;;;11.60;65.29
61292;BME280;47165;42.664;23.368;2023-04-19T02:21:45;94562.56;;;11.51;65.78
61292;BME280;47165;42.664;23.368;2023-04-19T02:24:11;94559.72;;;11.28;66.57
61292;BME280;47165;42.664;23.368;2023-04-19T02:26:36;94551.63;;;11.18;66.93
61292;BME280;47165;42.664;23.368;2023-04-19T02:29:03;94552.53;;;11.04;67.71
61292;BME280;47165;42.664;23.368;2023-04-19T02:31:28;94561.78;;;11.23;67.06
61292;BME280;47165;42.664;23.368;2023-04-19T02:33:53;94565.59;;;11.04;67.87
61292;BME280;47165;42.664;23.368;2023-04-19T02:36:19;94560.84;;;11.24;67.30
61292;BME280;47165;42.664;23.368;2023-04-19T02:38:45;94565.25;;;11.36;67.18
61292;BME280;47165;42.664;23.368;2023-04-19T02:41:10;94565.78;;;11.41;66.66
61292;BME280;47165;42.664;23.368;2023-04-19T02:43:35;94561.09;;;11.46;66.25
61292;BME280;47165;42.664;23.368;2023-04-19T02:46:01;94564.16;;;11.13;67.22
61292;BME280;47165;42.664;23.368;2023-04-19T02:48:27;94565.00;;;10.74;69.10
61292;BME280;47165;42.664;23.368;2023-04-19T02:50:52;94559.19;;;10.83;68.76
61292;BME280;47165;42.664;23.368;2023-04-19T02:53:18;94568.09;;;10.93;68.28
61292;BME280;47165;42.664;23.368;2023-04-19T02:55:43;94564.38;;;11.10;67.81
61292;BME280;47165;42.664;23.368;2023-04-19T02:58:08;94561.34;;;11.16;67.46
61292;BME280;47165;42.664;23.368;2023-04-19T03:00:34;94564.25;;;10.44;70.19
61292;BME280;47165;42.664;23.368;2023-04-19T03:03:00;94570.03;;;10.35;70.97
61292;BME280;47165;42.664;23.368;2023-04-19T03:05:28;94565.69;;;10.21;71.65
61292;BME280;47165;42.664;23.368;2023-04-19T03:07:53;94573.19;;;10.55;70.53
61292;BME280;47165;42.664;23.368;2023-04-19T03:10:18;94560.91;;;10.70;69.65
61292;BME280;47165;42.664;23.368;2023-04-19T03:12:44;94564.88;;;10.62;69.70
61292;BME280;47165;42.664;23.368;2023-04-19T03:15:09;94552.34;;;10.67;69.14
61292;BME280;47165;42.664;23.368;2023-04-19T03:17:35;94555.44;;;10.60;69.42
61292;BME280;47165;42.664;23.368;2023-04-19T03:20:01;94557.94;;;10.61;69.52
61292;BME280;47165;42.664;23.368;2023-04-19T03:22:30;94549.75;;;10.80;68.88
61292;BME280;47165;42.664;23.368;2023-04-19T03:24:55;94552.94;;;10.98;68.16
61292;BME280;47165;42.664;23.368;2023-04-19T03:27:21;94548.69;;;10.43;69.16
61292;BME280;47165;42.664;23.368;2023-04-19T03:29:46;94563.03;;;10.50;69.75
61292;BME280;47165;42.664;23.368;2023-04-19T03:32:12;94557.94;;;10.61;69.27
61292;BME280;47165;42.664;23.368;2023-04-19T03:34:37;94556.47;;;10.57;69.52
61292;BME280;47165;42.664;23.368;2023-04-19T03:37:02;94561.22;;;10.65;69.18
61292;BME280;47165;42.664;23.368;2023-04-19T03:39:28;94550.34;;;10.58;69.22
61292;BME280;47165;42.664;23.368;2023-04-19T03:41:53;94549.38;;;10.59;68.96
61292;BME280;47165;42.664;23.368;2023-04-19T03:44:19;94556.34;;;10.46;69.28
61292;BME280;47165;42.664;23.368;2023-04-19T03:46:44;94549.13;;;10.50;69.23
61292;BME280;47165;42.664;23.368;2023-04-19T03:52:31;94561.34;;;9.93;71.37
61292;BME280;47165;42.664;23.368;2023-04-19T03:54:57;94554.53;;;10.05;71.09
61292;BME280;47165;42.664;23.368;2023-04-19T03:57:22;94553.03;;;10.15;70.66
61292;BME280;47165;42.664;23.368;2023-04-19T03:59:48;94549.88;;;9.96;71.61
61292;BME280;47165;42.664;23.368;2023-04-19T04:02:13;94560.56;;;10.20;70.66
61292;BME280;47165;42.664;23.368;2023-04-19T04:04:38;94549.00;;;10.38;69.90
61292;BME280;47165;42.664;23.368;2023-04-19T04:07:04;94556.00;;;10.38;70.09
61292;BME280;47165;42.664;23.368;2023-04-19T04:09:30;94558.56;;;10.52;69.24
61292;BME280;47165;42.664;23.368;2023-04-19T04:11:55;94559.25;;;10.69;68.75
61292;BME280;47165;42.664;23.368;2023-04-19T04:14:20;94565.94;;;10.73;68.34
61292;BME280;47165;42.664;23.368;2023-04-19T04:16:46;94564.94;;;10.19;70.20
61292;BME280;47165;42.664;23.368;2023-04-19T04:19:11;94567.78;;;10.29;69.82
61292;BME280;47165;42.664;23.368;2023-04-19T04:21:37;94573.69;;;10.33;69.80
61292;BME280;47165;42.664;23.368;2023-04-19T04:24:02;94579.34;;;10.25;70.08
61292;BME280;47165;42.664;23.368;2023-04-19T04:26:28;94564.69;;;9.95;71.33
61292;BME280;47165;42.664;23.368;2023-04-19T04:28:58;94572.13;;;9.87;72.00
61292;BME280;47165;42.664;23.368;2023-04-19T04:31:24;94568.47;;;10.04;71.86
61292;BME280;47165;42.664;23.368;2023-04-19T04:33:50;94573.59;;;10.20;71.30
61292;BME280;47165;42.664;23.368;2023-04-19T04:36:17;94579.75;;;10.33;70.40
61292;BME280;47165;42.664;23.368;2023-04-19T04:38:43;94579.63;;;10.49;69.94
61292;BME280;47165;42.664;23.368;2023-04-19T04:41:10;94581.16;;;9.96;71.75
61292;BME280;47165;42.664;23.368;2023-04-19T04:43:36;94573.00;;;10.29;70.86
61292;BME280;47165;42.664;23.368;2023-04-19T04:46:02;94583.44;;;10.29;70.38
61292;BME280;47165;42.664;23.368;2023-04-19T04:48:28;94582.16;;;10.22;70.52
61292;BME280;47165;42.664;23.368;2023-04-19T04:50:55;94582.34;;;10.19;71.29
61292;BME280;47165;42.664;23.368;2023-04-19T04:53:21;94585.53;;;10.24;70.82
61292;BME280;47165;42.664;23.368;2023-04-19T04:55:47;94578.47;;;10.12;71.19
61292;BME280;47165;42.664;23.368;2023-04-19T04:58:12;94582.25;;;10.35;71.37
61292;BME280;47165;42.664;23.368;2023-04-19T05:00:38;94573.53;;;10.63;70.64
61292;BME280;47165;42.664;23.368;2023-04-19T05:03:03;94576.09;;;10.50;70.12
61292;BME280;47165;42.664;23.368;2023-04-19T05:05:28;94585.22;;;10.43;70.71
61292;BME280;47165;42.664;23.368;2023-04-19T05:07:54;94588.41;;;10.48;70.40
61292;BME280;47165;42.664;23.368;2023-04-19T05:10:19;94582.53;;;10.72;69.43
61292;BME280;47165;42.664;23.368;2023-04-19T05:12:45;94584.09;;;10.74;69.59
61292;BME280;47165;42.664;23.368;2023-04-19T05:15:10;94575.50;;;10.59;69.12
61292;BME280;47165;42.664;23.368;2023-04-19T05:17:36;94581.50;;;10.47;69.57
61292;BME280;47165;42.664;23.368;2023-04-19T05:20:01;94587.78;;;9.87;71.95
61292;BME280;47165;42.664;23.368;2023-04-19T05:22:27;94583.03;;;9.79;72.97
61292;BME280;47165;42.664;23.368;2023-04-19T05:24:52;94589.06;;;9.94;72.26
61292;BME280;47165;42.664;23.368;2023-04-19T05:27:17;94591.78;;;10.07;71.57
61292;BME280;47165;42.664;23.368;2023-04-19T05:29:43;94595.31;;;10.35;71.00
61292;BME280;47165;42.664;23.368;2023-04-19T05:32:08;94599.59;;;10.36;70.36
61292;BME280;47165;42.664;23.368;2023-04-19T05:34:35;94589.28;;;10.61;69.54
61292;BME280;47165;42.664;23.368;2023-04-19T05:37:01;94591.66;;;10.37;70.69
61292;BME280;47165;42.664;23.368;2023-04-19T05:39:27;94599.28;;;10.55;69.82
61292;BME280;47165;42.664;23.368;2023-04-19T05:41:52;94591.88;;;10.20;71.48
61292;BME280;47165;42.664;23.368;2023-04-19T05:44:18;94587.44;;;10.49;70.71
61292;BME280;47165;42.664;23.368;2023-04-19T05:50:05;94591.38;;;10.27;70.84
61292;BME280;47165;42.664;23.368;2023-04-19T05:52:31;94591.94;;;10.18;71.28
61292;BME280;47165;42.664;23.368;2023-04-19T05:54:57;94591.94;;;10.18;71.21
61292;BME280;47165;42.664;23.368;2023-04-19T05:57:23;94601.91;;;10.26;71.48
61292;BME280;47165;42.664;23.368;2023-04-19T05:59:48;94600.13;;;10.55;70.33
61292;BME280;47165;42.664;23.368;2023-04-19T06:02:14;94604.13;;;10.61;69.76
61292;BME280;47165;42.664;23.368;2023-04-19T06:04:39;94591.19;;;10.72;69.32
61292;BME280;47165;42.664;23.368;2023-04-19T06:07:06;94594.50;;;10.88;68.89
61292;BME280;47165;42.664;23.368;2023-04-19T06:09:31;94595.09;;;11.06;67.76
61292;BME280;47165;42.664;23.368;2023-04-19T06:11:57;94598.75;;;11.04;68.00
61292;BME280;47165;42.664;23.368;2023-04-19T06:14:23;94596.88;;;10.79;69.05
61292;BME280;47165;42.664;23.368;2023-04-19T06:16:48;94586.84;;;10.73;68.86
61292;BME280;47165;42.664;23.368;2023-04-19T06:19:14;94605.25;;;10.84;68.80
61292;BME280;47165;42.664;23.368;2023-04-19T06:21:39;94598.66;;;10.22;70.71
61292;BME280;47165;42.664;23.368;2023-04-19T06:24:05;94599.41;;;10.66;69.60
61292;BME280;47165;42.664;23.368;2023-04-19T06:26:31;94601.50;;;10.88;68.94
61292;BME280;47165;42.664;23.368;2023-04-19T06:28:57;94602.78;;;10.68;68.98
61292;BME280;47165;42.664;23.368;2023-04-19T06:31:22;94588.44;;;10.61;69.63
61292;BME280;47165;42.664;23.368;2023-04-19T06:33:48;94591.88;;;10.88;68.87
61292;BME280;47165;42.664;23.368;2023-04-19T06:36:14;94602.78;;;10.95;68.79
61292;BME280;47165;42.664;23.368;2023-04-19T06:38:39;94596.53;;;10.98;69.02
61292;BME280;47165;42.664;23.368;2023-04-19T06:41:06;94595.97;;;11.33;67.75
61292;BME280;47165;42.664;23.368;2023-04-19T06:43:31;94604.78;;;11.44;67.17
61292;BME280;47165;42.664;23.368;2023-04-19T06:46:01;94600.31;;;11.06;68.14
61292;BME280;47165;42.664;23.368;2023-04-19T06:48:27;94599.06;;;11.12;67.48
61292;BME280;47165;42.664;23.368;2023-04-19T06:50:53;94607.50;;;11.30;67.29
61292;BME280;47165;42.664;23.368;2023-04-19T06:53:19;94596.97;;;11.04;67.78
61292;BME280;47165;42.664;23.368;2023-04-19T06:55:45;94604.94;;;11.16;68.01
61292;BME280;47165;42.664;23.368;2023-04-19T06:58:10;94616.25;;;11.29;67.71
61292;BME280;47165;42.664;23.368;2023-04-19T07:00:36;94614.09;;;11.08;68.10
61292;BME280;47165;42.664;23.368;2023-04-19T07:03:01;94612.41;;;11.47;66.94
61292;BME280;47165;42.664;23.368;2023-04-19T07:05:28;94615.75;;;11.50;66.69
61292;BME280;47165;42.664;23.368;2023-04-19T07:07:53;94617.72;;;11.33;66.57
61292;BME280;47165;42.664;23.368;2023-04-19T07:10:19;94614.84;;;11.63;65.93
61292;BME280;47165;42.664;23.368;2023-04-19T07:12:44;94614.34;;;11.84;64.80
61292;BME280;47165;42.664;23.368;2023-04-19T07:15:10;94610.50;;;11.90;64.33
61292;BME280;47165;42.664;23.368;2023-04-19T07:17:36;94604.19;;;12.05;63.66
61292;BME280;47165;42.664;23.368;2023-04-19T07:20:06;94607.47;;;11.96;63.88
61292;BME280;47165;42.664;23.368;2023-04-19T07:22:32;94606.91;;;12.03;63.46
61292;BME280;47165;42.664;23.368;2023-04-19T07:24:57;94618.00;;;12.07;63.57
61292;BME280;47165;42.664;23.368;2023-04-19T07:27:24;94615.19;;;12.10;63.37
61292;BME280;47165;42.664;23.368;2023-04-19T07:29:49;94608.44;;;12.32;63.01
61292;BME280;47165;42.664;23.368;2023-04-19T07:32:15;94617.50;;;12.64;62.32
61292;BME280;47165;42.664;23.368;2023-04-19T07:34:40;94613.50;;;12.72;61.71
61292;BME280;47165;42.664;23.368;2023-04-19T07:37:07;94603.47;;;12.53;61.74
61292;BME280;47165;42.664;23.368;2023-04-19T07:39:33;94609.28;;;12.82;61.41
61292;BME280;47165;42.664;23.368;2023-04-19T07:41:58;94616.91;;;12.85;60.88
61292;BME280;47165;42.664;23.368;2023-04-19T07:44:25;94620.97;;;12.52;61.08
61292;BME280;47165;42.664;23.368;2023-04-19T07:50:12;94627.78;;;12.55;61.57
61292;BME280;47165;42.664;23.368;2023-04-19T07:52:37;94620.00;;;11.91;63.72
61292;BME280;47165;42.664;23.368;2023-04-19T07:55:03;94624.72;;;11.98;63.32
61292;BME280;47165;42.664;23.368;2023-04-19T07:57:29;94612.22;;;11.63;64.33
61292;BME280;47165;42.664;23.368;2023-04-19T07:59:54;94612.88;;;11.93;64.16
61292;BME280;47165;42.664;23.368;2023-04-19T08:02:23;94615.81;;;12.01;63.51
61292;BME280;47165;42.664;23.368;2023-04-19T08:04:49;94610.38;;;12.04;64.01
61292;BME280;47165;42.664;23.368;2023-04-19T08:07:16;94619.31;;;12.38;63.12
61292;BME280;47165;42.664;23.368;2023-04-19T08:09:41;94615.69;;;12.41;62.57
61292;BME280;47165;42.664;23.368;2023-04-19T08:42:44;94608.13;;;12.73;60.56
61292;BME280;47165;42.664;23.368;2023-04-19T08:45:09;94604.34;;;13.01;59.65
61292;BME280;47165;42.664;23.368;2023-04-19T08:47:38;94600.03;;;13.24;58.91
61292;BME280;47165;42.664;23.368;2023-04-19T08:50:06;94600.66;;;13.28;58.62
61292;BME280;47165;42.664;23.368;2023-04-19T08:52:33;94595.47;;;13.15;58.63
61292;BME280;47165;42.664;23.368;2023-04-19T08:55:06;94585.94;;;13.38;58.63
61292;BME280;47165;42.664;23.368;2023-04-19T08:57:34;94589.63;;;12.87;59.36
61292;BME280;47165;42.664;23.368;2023-04-19T09:00:01;94602.72;;;12.87;59.52
61292;BME280;47165;42.664;23.368;2023-04-19T09:02:26;94593.09;;;12.88;59.17
61292;BME280;47165;42.664;23.368;2023-04-19T09:04:52;94591.44;;;12.00;61.44
61292;BME280;47165;42.664;23.368;2023-04-19T09:07:27;94591.28;;;12.27;61.39
61292;BME280;47165;42.664;23.368;2023-04-19T09:10:16;94593.19;;;12.62;60.67
61292;BME280;47165;42.664;23.368;2023-04-19T09:12:42;94583.09;;;13.17;59.16
61292;BME280;47165;42.664;23.368;2023-04-19T09:15:09;94582.28;;;13.28;58.57
61292;BME280;47165;42.664;23.368;2023-04-19T09:17:36;94572.16;;;13.47;57.17
61292;BME280;47165;42.664;23.368;2023-04-19T09:20:02;94577.50;;;13.57;56.76
61292;BME280;47165;42.664;23.368;2023-04-19T09:22:29;94577.06;;;13.04;57.87
61292;BME280;47165;42.664;23.368;2023-04-19T09:24:54;94590.88;;;13.19;58.38
61292;BME280;47165;42.664;23.368;2023-04-19T09:27:31;94579.50;;;13.42;56.34
61292;BME280;47165;42.664;23.368;2023-04-19T09:29:59;94571.34;;;13.58;55.45
61292;BME280;47165;42.664;23.368;2023-04-19T09:32:25;94576.16;;;13.29;56.41
61292;BME280;47165;42.664;23.368;2023-04-19T09:34:58;94578.22;;;13.13;57.87
61292;BME280;47165;42.664;23.368;2023-04-19T09:37:24;94581.91;;;13.45;57.10
61292;BME280;47165;42.664;23.368;2023-04-19T09:39:51;94568.84;;;13.79;55.82
61292;BME280;47165;42.664;23.368;2023-04-19T09:42:17;94574.13;;;14.13;55.48
61292;BME280;47165;42.664;23.368;2023-04-19T09:44:59;94563.13;;;14.42;54.54
61292;BME280;47165;42.664;23.368;2023-04-19T09:50:53;94553.78;;;14.72;52.67
61292;BME280;47165;42.664;23.368;2023-04-19T09:53:20;94553.00;;;14.92;52.79
61292;BME280;47165;42.664;23.368;2023-04-19T09:55:46;94547.25;;;14.98;51.00
61292;BME280;47165;42.664;23.368;2023-04-19T09:58:12;94548.13;;;14.21;52.80
61292;BME280;47165;42.664;23.368;2023-04-19T10:00:42;94545.34;;;14.00;53.55
61292;BME280;47165;42.664;23.368;2023-04-19T10:03:09;94539.75;;;14.16;53.18
61292;BME280;47165;42.664;23.368;2023-04-19T10:05:39;94540.06;;;14.45;52.41
61292;BME280;47165;42.664;23.368;2023-04-19T10:08:10;94540.34;;;14.86;51.70
61292;BME280;47165;42.664;23.368;2023-04-19T10:10:36;94536.00;;;14.53;51.39
61292;BME280;47165;42.664;23.368;2023-04-19T10:13:06;94533.50;;;14.62;51.17
61292;BME280;47165;42.664;23.368;2023-04-19T10:15:34;94558.09;;;14.61;51.48
61292;BME280;47165;42.664;23.368;2023-04-19T10:18:01;94545.81;;;14.39;51.34
61292;BME280;47165;42.664;23.368;2023-04-19T10:20:36;94537.09;;;14.50;52.13
61292;BME280;47165;42.664;23.368;2023-04-19T10:23:02;94534.09;;;14.55;51.35
61292;BME280;47165;42.664;23.368;2023-04-19T10:25:31;94532.16;;;14.68;51.50
61292;BME280;47165;42.664;23.368;2023-04-19T10:27:56;94515.59;;;14.88;51.06
61292;BME280;47165;42.664;23.368;2023-04-19T10:30:22;94531.22;;;15.01;51.23
61292;BME280;47165;42.664;23.368;2023-04-19T10:32:53;94523.38;;;14.90;51.38
61292;BME280;47165;42.664;23.368;2023-04-19T10:35:32;94526.47;;;14.95;50.73
61292;BME280;47165;42.664;23.368;2023-04-19T10:40:53;94499.28;;;14.85;51.01
61292;BME280;47165;42.664;23.368;2023-04-19T10:43:26;94521.63;;;15.12;51.11
61292;BME280;47165;42.664;23.368;2023-04-19T10:45:52;94511.34;;;15.29;50.00
61292;BME280;47165;42.664;23.368;2023-04-19T10:51:02;94502.53;;;16.13;48.33
61292;BME280;47165;42.664;23.368;2023-04-19T10:56:14;94500.34;;;16.28;47.00
61292;BME280;47165;42.664;23.368;2023-04-19T11:01:47;94486.22;;;17.08;45.32
61292;BME280;47165;42.664;23.368;2023-04-19T11:07:05;94496.91;;;17.17;44.72
61292;BME280;47165;42.664;23.368;2023-04-19T11:09:36;94482.53;;;17.48;44.06
61292;BME280;47165;42.664;23.368;2023-04-19T11:12:05;94503.78;;;17.57;43.10
61292;BME280;47165;42.664;23.368;2023-04-19T11:14:44;94477.69;;;17.54;42.26
61292;BME280;47165;42.664;23.368;2023-04-19T11:17:16;94501.88;;;17.96;42.48
61292;BME280;47165;42.664;23.368;2023-04-19T11:20:03;94487.69;;;16.72;43.54
61292;BME280;47165;42.664;23.368;2023-04-19T11:25:11;94478.97;;;16.72;43.20
61292;BME280;47165;42.664;23.368;2023-04-19T11:27:38;94471.88;;;16.72;43.71
61292;BME280;47165;42.664;23.368;2023-04-19T11:30:08;94489.63;;;16.60;43.62
61292;BME280;47165;42.664;23.368;2023-04-19T11:32:35;94487.41;;;16.65;43.15
61292;BME280;47165;42.664;23.368;2023-04-19T11:35:07;94471.06;;;17.01;42.77
61292;BME280;47165;42.664;23.368;2023-04-19T11:37:34;94481.75;;;17.76;42.50
61292;BME280;47165;42.664;23.368;2023-04-19T11:40:01;94478.03;;;18.16;39.73
61292;BME280;47165;42.664;23.368;2023-04-19T11:42:26;94467.88;;;18.66;38.49
61292;BME280;47165;42.664;23.368;2023-04-19T11:48:14;94464.06;;;18.79;36.72
61292;BME280;47165;42.664;23.368;2023-04-19T11:50:44;94462.72;;;19.19;36.46
61292;BME280;47165;42.664;23.368;2023-04-19T11:56:26;94456.84;;;20.46;34.78
61292;BME280;47165;42.664;23.368;2023-04-19T11:58:41;94455.34;;;21.52;32.35
61292;BME280;47165;42.664;23.368;2023-04-19T12:01:09;94446.22;;;22.58;30.40
61292;BME280;47165;42.664;23.368;2023-04-19T12:06:16;94448.97;;;20.70;32.90
61292;BME280;47165;42.664;23.368;2023-04-19T12:08:44;94443.25;;;22.13;29.93
61292;BME280;47165;42.664;23.368;2023-04-19T12:11:11;94438.22;;;22.18;30.49
61292;BME280;47165;42.664;23.368;2023-04-19T12:13:37;94439.94;;;23.66;28.10
61292;BME280;47165;42.664;23.368;2023-04-19T12:16:05;94437.66;;;23.25;29.06
61292;BME280;47165;42.664;23.368;2023-04-19T12:18:48;94424.88;;;22.97;28.83
61292;BME280;47165;42.664;23.368;2023-04-19T12:21:27;94434.06;;;22.63;29.53
61292;BME280;47165;42.664;23.368;2023-04-19T12:23:57;94434.44;;;23.67;28.47
61292;BME280;47165;42.664;23.368;2023-04-19T12:26:23;94428.06;;;23.92;29.37
61292;BME280;47165;42.664;23.368;2023-04-19T12:28:49;94428.53;;;23.19;30.95
61292;BME280;47165;42.664;23.368;2023-04-19T12:31:14;94432.91;;;22.89;32.32
61292;BME280;47165;42.664;23.368;2023-04-19T12:33:40;94438.06;;;22.20;34.15
61292;BME280;47165;42.664;23.368;2023-04-19T12:36:06;94421.34;;;22.74;32.89
61292;BME280;47165;42.664;23.368;2023-04-19T12:38:31;94426.19;;;23.01;32.41
61292;BME280;47165;42.664;23.368;2023-04-19T12:40:57;94425.31;;;22.07;34.47
61292;BME280;47165;42.664;23.368;2023-04-19T12:43:22;94421.25;;;22.36;34.71
61292;BME280;47165;42.664;23.368;2023-04-19T12:45:48;94422.69;;;22.46;33.91
61292;BME280;47165;42.664;23.368;2023-04-19T12:48:13;94421.94;;;22.84;33.72
61292;BME280;47165;42.664;23.368;2023-04-19T12:50:38;94422.97;;;22.83;32.86
61292;BME280;47165;42.664;23.368;2023-04-19T12:53:04;94432.38;;;21.83;33.87
61292;BME280;47165;42.664;23.368;2023-04-19T12:55:30;94428.28;;;20.99;35.02
61292;BME280;47165;42.664;23.368;2023-04-19T12:57:56;94428.66;;;20.37;36.01
61292;BME280;47165;42.664;23.368;2023-04-19T13:00:21;94426.03;;;20.53;36.52
61292;BME280;47165;42.664;23.368;2023-04-19T13:02:47;94426.59;;;20.81;36.08
61292;BME280;47165;42.664;23.368;2023-04-19T13:05:13;94440.91;;;21.13;35.63
61292;BME280;47165;42.664;23.368;2023-04-19T13:07:38;94452.69;;;21.27;35.34
61292;BME280;47165;42.664;23.368;2023-04-19T13:10:04;94463.34;;;21.52;35.22
61292;BME280;47165;42.664;23.368;2023-04-19T13:12:30;94455.66;;;20.99;36.92
61292;BME280;47165;42.664;23.368;2023-04-19T13:14:55;94473.50;;;20.64;38.45
61292;BME280;47165;42.664;23.368;2023-04-19T13:17:21;94475.06;;;20.41;40.05
61292;BME280;47165;42.664;23.368;2023-04-19T13:19:46;94483.16;;;19.97;40.57
61292;BME280;47165;42.664;23.368;2023-04-19T13:22:12;94491.84;;;19.37;40.95
61292;BME280;47165;42.664;23.368;2023-04-19T13:24:37;94493.28;;;19.13;40.36
61292;BME280;47165;42.664;23.368;2023-04-19T13:27:03;94479.22;;;18.95;40.24
61292;BME280;47165;42.664;23.368;2023-04-19T13:29:28;94484.50;;;18.77;40.88
61292;BME280;47165;42.664;23.368;2023-04-19T13:31:54;94483.94;;;18.55;41.71
61292;BME280;47165;42.664;23.368;2023-04-19T13:34:19;94486.94;;;18.42;41.92
61292;BME280;47165;42.664;23.368;2023-04-19T13:36:45;94479.09;;;18.23;42.31
61292;BME280;47165;42.664;23.368;2023-04-19T13:39:11;94477.59;;;17.93;43.93
61292;BME280;47165;42.664;23.368;2023-04-19T13:41:36;94473.81;;;17.95;44.25
61292;BME280;47165;42.664;23.368;2023-04-19T13:44:02;94465.75;;;17.49;46.01
61292;BME280;47165;42.664;23.368;2023-04-19T13:49:49;94466.50;;;17.69;45.41
61292;BME280;47165;42.664;23.368;2023-04-19T13:52:17;94472.72;;;17.21;45.31
61292;BME280;47165;42.664;23.368;2023-04-19T13:54:42;94482.59;;;17.09;46.03
61292;BME280;47165;42.664;23.368;2023-04-19T13:57:08;94475.09;;;17.05;46.71
61292;BME280;47165;42.664;23.368;2023-04-19T13:59:33;94475.66;;;17.08;47.12
61292;BME280;47165;42.664;23.368;2023-04-19T14:01:59;94486.78;;;17.02;47.11
61292;BME280;47165;42.664;23.368;2023-04-19T14:04:24;94475.53;;;17.00;47.63